sensor_id;sensor_type;location;lat;lon;timestamp;temperature;humidity
12578;DHT22;6354;51.026;8.968;2023-04-24T00:00:16;11.40;99.90
12578;DHT22;6354;51.026;8.968;2023-04-24T00:02:45;11.30;99.90
12578;DHT22;6354;51.026;8.968;2023-04-24T00:05:15;11.30;99.90
12578;DHT22;6354;51.026;8.968;2023-04-24T00:07:44;11.20;99.90
12578;DHT22;6354;51.026;8.968;2023-04-24T00:10:12;11.10;99.90
12578;DHT22;6354;51.026;8.968;2023-04-24T00:12:40;11.00;99.90
12578;DHT22;6354;51.026;8.968;2023-04-24T00:15:09;10.90;99.90
12578;DHT22;6354;51.026;8.968;2023-04-24T00:17:38;10.80;99.90
12578;DHT22;6354;51.026;8.968;2023-04-24T00:20:07;10.80;99.90
12578;DHT22;6354;51.026;8.968;2023-04-24T00:22:38;10.80;99.90
12578;DHT22;6354;51.026;8.968;2023-04-24T00:25:07;10.90;99.90
12578;DHT22;6354;51.026;8.968;2023-04-24T00:27:35;10.80;99.90
12578;DHT22;6354;51.026;8.968;2023-04-24T00:30:05;10.80;99.90
12578;DHT22;6354;51.026;8.968;2023-04-24T00:32:33;10.80;99.90
12578;DHT22;6354;51.026;8.968;2023-04-24T00:35:01;10.80;99.90
12578;DHT22;6354;51.026;8.968;2023-04-24T00:37:29;10.90;99.90
12578;DHT22;6354;51.026;8.968;2023-04-24T00:39:58;10.90;99.90
12578;DHT22;6354;51.026;8.968;2023-04-24T00:42:26;10.90;99.90
12578;DHT22;6354;51.026;8.968;2023-04-24T00:44:56;11.00;99.90
12578;DHT22;6354;51.026;8.968;2023-04-24T00:47:25;11.00;99.90
12578;DHT22;6354;51.026;8.968;2023-04-24T00:49:53;11.10;99.90
12578;DHT22;6354;51.026;8.968;2023-04-24T00:52:21;11.10;99.90
12578;DHT22;6354;51.026;8.968;2023-04-24T00:54:51;11.10;99.90
12578;DHT22;6354;51.026;8.968;2023-04-24T00:57:20;11.20;99.90
12578;DHT22;6354;51.026;8.968;2023-04-24T00:59:50;11.20;99.90
12578;DHT22;6354;51.026;8.968;2023-04-24T01:02:19;11.20;99.90
12578;DHT22;6354;51.026;8.968;2023-04-24T01:04:49;11.20;99.90
12578;DHT22;6354;51.026;8.968;2023-04-24T01:07:19;11.20;99.90
12578;DHT22;6354;51.026;8.968;2023-04-24T01:09:48;11.20;99.90
12578;DHT22;6354;51.026;8.968;2023-04-24T01:12:19;11.20;99.90
12578;DHT22;6354;51.026;8.968;2023-04-24T01:14:47;11.20;99.90
12578;DHT22;6354;51.026;8.968;2023-04-24T01:17:15;11.20;99.90
12578;DHT22;6354;51.026;8.968;2023-04-24T01:19:43;11.20;99.90
12578;DHT22;6354;51.026;8.968;2023-04-24T01:22:14;11.20;99.90
12578;DHT22;6354;51.026;8.968;2023-04-24T01:28:00;11.20;99.90
12578;DHT22;6354;51.026;8.968;2023-04-24T01:30:29;11.10;99.90
12578;DHT22;6354;51.026;8.968;2023-04-24T01:32:58;11.10;99.90
12578;DHT22;6354;51.026;8.968;2023-04-24T01:35:27;11.10;99.90
12578;DHT22;6354;51.026;8.968;2023-04-24T01:37:56;11.20;99.90
12578;DHT22;6354;51.026;8.968;2023-04-24T01:40:25;11.20;99.90
12578;DHT22;6354;51.026;8.968;2023-04-24T01:42:53;11.20;99.90
12578;DHT22;6354;51.026;8.968;2023-04-24T01:45:21;11.20;99.90
12578;DHT22;6354;51.026;8.968;2023-04-24T01:47:50;11.20;99.90
12578;DHT22;6354;51.026;8.968;2023-04-24T01:50:18;11.10;99.90
12578;DHT22;6354;51.026;8.968;2023-04-24T01:52:46;11.10;99.90
12578;DHT22;6354;51.026;8.968;2023-04-24T01:55:16;11.10;99.90
12578;DHT22;6354;51.026;8.968;2023-04-24T01:57:44;11.20;99.90
12578;DHT22;6354;51.026;8.968;2023-04-24T02:00:12;11.20;99.90
12578;DHT22;6354;51.026;8.968;2023-04-24T02:02:41;11.10;99.90
12578;DHT22;6354;51.026;8.968;2023-04-24T02:05:13;11.10;99.90
12578;DHT22;6354;51.026;8.968;2023-04-24T02:07:41;11.20;99.90
12578;DHT22;6354;51.026;8.968;2023-04-24T02:10:10;11.10;99.90
12578;DHT22;6354;51.026;8.968;2023-04-24T02:12:40;11.20;99.90
12578;DHT22;6354;51.026;8.968;2023-04-24T02:15:08;11.10;99.90
12578;DHT22;6354;51.026;8.968;2023-04-24T02:17:37;11.20;99.90
12578;DHT22;6354;51.026;8.968;2023-04-24T02:20:06;11.10;99.90
12578;DHT22;6354;51.026;8.968;2023-04-24T02:22:34;11.10;99.90
12578;DHT22;6354;51.026;8.968;2023-04-24T02:25:03;11.10;99.90
12578;DHT22;6354;51.026;8.968;2023-04-24T02:27:31;11.10;99.90
12578;DHT22;6354;51.026;8.968;2023-04-24T02:30:01;11.00;99.90
12578;DHT22;6354;51.026;8.968;2023-04-24T02:32:29;11.10;99.90
12578;DHT22;6354;51.026;8.968;2023-04-24T02:34:57;11.00;99.90
12578;DHT22;6354;51.026;8.968;2023-04-24T02:37:26;11.00;99.90
12578;DHT22;6354;51.026;8.968;2023-04-24T02:39:54;11.00;99.90
12578;DHT22;6354;51.026;8.968;2023-04-24T02:42:22;11.10;99.90
12578;DHT22;6354;51.026;8.968;2023-04-24T02:44:50;11.10;99.90
12578;DHT22;6354;51.026;8.968;2023-04-24T02:47:19;11.00;99.90
12578;DHT22;6354;51.026;8.968;2023-04-24T02:49:47;11.00;99.90
12578;DHT22;6354;51.026;8.968;2023-04-24T02:52:15;11.10;99.90
12578;DHT22;6354;51.026;8.968;2023-04-24T02:54:43;11.00;99.90
12578;DHT22;6354;51.026;8.968;2023-04-24T02:57:11;11.00;99.90
12578;DHT22;6354;51.026;8.968;2023-04-24T02:59:39;10.90;99.90
12578;DHT22;6354;51.026;8.968;2023-04-24T03:02:07;10.90;99.90
12578;DHT22;6354;51.026;8.968;2023-04-24T03:04:37;10.80;99.90
12578;DHT22;6354;51.026;8.968;2023-04-24T03:07:06;10.80;99.90
12578;DHT22;6354;51.026;8.968;2023-04-24T03:09:34;10.80;99.90
12578;DHT22;6354;51.026;8.968;2023-04-24T03:12:02;10.80;99.90
12578;DHT22;6354;51.026;8.968;2023-04-24T03:14:30;10.90;99.90
12578;DHT22;6354;51.026;8.968;2023-04-24T03:16:58;10.80;99.90
12578;DHT22;6354;51.026;8.968;2023-04-24T03:19:27;10.80;99.90
12578;DHT22;6354;51.026;8.968;2023-04-24T03:21:56;10.90;99.90
12578;DHT22;6354;51.026;8.968;2023-04-24T03:24:24;10.90;99.90
12578;DHT22;6354;51.026;8.968;2023-04-24T03:26:54;10.90;99.90
12578;DHT22;6354;51.026;8.968;2023-04-24T03:29:23;10.90;99.90
12578;DHT22;6354;51.026;8.968;2023-04-24T03:31:51;10.90;99.90
12578;DHT22;6354;51.026;8.968;2023-04-24T03:34:19;10.80;99.90
12578;DHT22;6354;51.026;8.968;2023-04-24T03:36:47;10.80;99.90
12578;DHT22;6354;51.026;8.968;2023-04-24T03:39:16;10.80;99.90
12578;DHT22;6354;51.026;8.968;2023-04-24T03:41:44;10.80;99.90
12578;DHT22;6354;51.026;8.968;2023-04-24T03:44:12;10.80;99.90
12578;DHT22;6354;51.026;8.968;2023-04-24T03:46:41;10.80;99.90
12578;DHT22;6354;51.026;8.968;2023-04-24T03:49:09;10.80;99.90
12578;DHT22;6354;51.026;8.968;2023-04-24T03:51:37;10.70;99.90
12578;DHT22;6354;51.026;8.968;2023-04-24T03:54:05;10.80;99.90
12578;DHT22;6354;51.026;8.968;2023-04-24T03:56:34;10.80;99.90
12578;DHT22;6354;51.026;8.968;2023-04-24T03:59:02;10.80;99.90
12578;DHT22;6354;51.026;8.968;2023-04-24T04:01:30;10.70;99.90
12578;DHT22;6354;51.026;8.968;2023-04-24T04:03:58;10.70;99.90
12578;DHT22;6354;51.026;8.968;2023-04-24T04:06:26;10.70;99.90
12578;DHT22;6354;51.026;8.968;2023-04-24T04:08:55;10.70;99.90
12578;DHT22;6354;51.026;8.968;2023-04-24T04:11:23;10.70;99.90
12578;DHT22;6354;51.026;8.968;2023-04-24T04:13:53;10.70;99.90
12578;DHT22;6354;51.026;8.968;2023-04-24T04:16:21;10.70;99.90
12578;DHT22;6354;51.026;8.968;2023-04-24T04:18:49;10.70;99.90
12578;DHT22;6354;51.026;8.968;2023-04-24T04:21:17;10.70;99.90
12578;DHT22;6354;51.026;8.968;2023-04-24T04:23:45;10.70;99.90
12578;DHT22;6354;51.026;8.968;2023-04-24T04:26:13;10.70;99.90
12578;DHT22;6354;51.026;8.968;2023-04-24T04:28:41;10.70;99.90
12578;DHT22;6354;51.026;8.968;2023-04-24T04:31:12;10.70;99.90
12578;DHT22;6354;51.026;8.968;2023-04-24T04:33:40;10.70;99.90
12578;DHT22;6354;51.026;8.968;2023-04-24T04:36:08;10.70;99.90
12578;DHT22;6354;51.026;8.968;2023-04-24T04:38:36;10.70;99.90
12578;DHT22;6354;51.026;8.968;2023-04-24T04:41:05;10.70;99.90
12578;DHT22;6354;51.026;8.968;2023-04-24T04:43:33;10.70;99.90
12578;DHT22;6354;51.026;8.968;2023-04-24T04:46:03;10.70;99.90
12578;DHT22;6354;51.026;8.968;2023-04-24T04:48:32;10.90;99.90
12578;DHT22;6354;51.026;8.968;2023-04-24T04:51:00;10.70;99.90
12578;DHT22;6354;51.026;8.968;2023-04-24T04:53:28;10.70;99.90
12578;DHT22;6354;51.026;8.968;2023-04-24T04:55:56;10.70;99.90
12578;DHT22;6354;51.026;8.968;2023-04-24T04:58:24;10.70;99.90
12578;DHT22;6354;51.026;8.968;2023-04-24T05:00:52;10.70;99.90
12578;DHT22;6354;51.026;8.968;2023-04-24T05:03:20;10.80;99.90
12578;DHT22;6354;51.026;8.968;2023-04-24T05:05:50;10.70;99.90
12578;DHT22;6354;51.026;8.968;2023-04-24T05:08:17;10.70;99.90
12578;DHT22;6354;51.026;8.968;2023-04-24T05:10:53;10.70;99.90
12578;DHT22;6354;51.026;8.968;2023-04-24T05:13:22;10.60;99.90
12578;DHT22;6354;51.026;8.968;2023-04-24T05:15:52;10.60;99.90
12578;DHT22;6354;51.026;8.968;2023-04-24T05:18:20;10.60;99.90
12578;DHT22;6354;51.026;8.968;2023-04-24T05:20:50;10.50;99.90
12578;DHT22;6354;51.026;8.968;2023-04-24T05:23:18;10.40;99.90
12578;DHT22;6354;51.026;8.968;2023-04-24T05:25:46;10.40;99.90
12578;DHT22;6354;51.026;8.968;2023-04-24T05:28:15;10.40;99.90
12578;DHT22;6354;51.026;8.968;2023-04-24T05:30:43;10.40;99.90
12578;DHT22;6354;51.026;8.968;2023-04-24T05:33:11;10.50;99.90
12578;DHT22;6354;51.026;8.968;2023-04-24T05:35:41;10.60;99.90
12578;DHT22;6354;51.026;8.968;2023-04-24T05:38:14;10.60;99.90
12578;DHT22;6354;51.026;8.968;2023-04-24T05:40:44;10.60;99.90
12578;DHT22;6354;51.026;8.968;2023-04-24T05:43:12;10.50;99.90
12578;DHT22;6354;51.026;8.968;2023-04-24T05:45:40;10.50;99.90
12578;DHT22;6354;51.026;8.968;2023-04-24T05:48:08;10.60;99.90
12578;DHT22;6354;51.026;8.968;2023-04-24T05:50:36;10.50;99.90
12578;DHT22;6354;51.026;8.968;2023-04-24T05:53:04;10.70;99.90
12578;DHT22;6354;51.026;8.968;2023-04-24T05:55:35;10.70;99.90
12578;DHT22;6354;51.026;8.968;2023-04-24T05:58:03;10.70;99.90
12578;DHT22;6354;51.026;8.968;2023-04-24T06:00:31;10.60;99.90
12578;DHT22;6354;51.026;8.968;2023-04-24T06:03:00;10.60;99.90
12578;DHT22;6354;51.026;8.968;2023-04-24T06:05:30;10.50;99.90
12578;DHT22;6354;51.026;8.968;2023-04-24T06:07:58;10.40;99.90
12578;DHT22;6354;51.026;8.968;2023-04-24T06:10:26;11.10;99.90
12578;DHT22;6354;51.026;8.968;2023-04-24T06:12:56;11.70;99.90
12578;DHT22;6354;51.026;8.968;2023-04-24T06:15:28;12.10;99.90
12578;DHT22;6354;51.026;8.968;2023-04-24T06:17:57;12.40;99.90
12578;DHT22;6354;51.026;8.968;2023-04-24T06:20:25;12.80;99.90
12578;DHT22;6354;51.026;8.968;2023-04-24T06:22:53;12.20;99.90
12578;DHT22;6354;51.026;8.968;2023-04-24T06:25:24;11.80;99.90
12578;DHT22;6354;51.026;8.968;2023-04-24T06:27:52;11.50;99.90
12578;DHT22;6354;51.026;8.968;2023-04-24T06:30:23;11.40;99.90
12578;DHT22;6354;51.026;8.968;2023-04-24T06:32:51;11.30;99.90
12578;DHT22;6354;51.026;8.968;2023-04-24T06:35:19;11.20;99.90
12578;DHT22;6354;51.026;8.968;2023-04-24T06:37:47;11.10;99.90
12578;DHT22;6354;51.026;8.968;2023-04-24T06:40:15;11.00;99.90
12578;DHT22;6354;51.026;8.968;2023-04-24T06:42:45;11.00;99.90
12578;DHT22;6354;51.026;8.968;2023-04-24T06:45:13;10.90;99.90
12578;DHT22;6354;51.026;8.968;2023-04-24T06:47:42;10.70;99.90
12578;DHT22;6354;51.026;8.968;2023-04-24T06:50:10;10.80;99.90
12578;DHT22;6354;51.026;8.968;2023-04-24T06:52:40;10.70;99.90
12578;DHT22;6354;51.026;8.968;2023-04-24T06:55:08;10.80;99.90
12578;DHT22;6354;51.026;8.968;2023-04-24T06:57:37;10.90;99.90
12578;DHT22;6354;51.026;8.968;2023-04-24T07:00:06;11.10;99.90
12578;DHT22;6354;51.026;8.968;2023-04-24T07:02:36;11.00;99.90
12578;DHT22;6354;51.026;8.968;2023-04-24T07:05:06;11.00;99.90
12578;DHT22;6354;51.026;8.968;2023-04-24T07:07:35;10.90;99.90
12578;DHT22;6354;51.026;8.968;2023-04-24T07:10:05;11.00;99.90
12578;DHT22;6354;51.026;8.968;2023-04-24T07:12:33;11.00;99.90
12578;DHT22;6354;51.026;8.968;2023-04-24T07:15:02;11.20;99.90
12578;DHT22;6354;51.026;8.968;2023-04-24T07:17:30;11.50;99.90
12578;DHT22;6354;51.026;8.968;2023-04-24T07:19:59;11.70;99.90
12578;DHT22;6354;51.026;8.968;2023-04-24T07:22:28;11.90;99.90
12578;DHT22;6354;51.026;8.968;2023-04-24T07:24:56;11.80;99.90
12578;DHT22;6354;51.026;8.968;2023-04-24T07:27:25;11.90;99.90
12578;DHT22;6354;51.026;8.968;2023-04-24T07:29:53;12.10;99.90
12578;DHT22;6354;51.026;8.968;2023-04-24T07:32:21;12.30;99.90
12578;DHT22;6354;51.026;8.968;2023-04-24T07:34:49;12.20;99.90
12578;DHT22;6354;51.026;8.968;2023-04-24T07:37:17;12.30;99.90
12578;DHT22;6354;51.026;8.968;2023-04-24T07:39:46;12.30;99.90
12578;DHT22;6354;51.026;8.968;2023-04-24T07:42:14;12.30;99.90
12578;DHT22;6354;51.026;8.968;2023-04-24T07:44:42;12.20;99.90
12578;DHT22;6354;51.026;8.968;2023-04-24T07:47:10;12.00;99.90
12578;DHT22;6354;51.026;8.968;2023-04-24T07:49:38;12.00;99.90
12578;DHT22;6354;51.026;8.968;2023-04-24T07:52:06;12.10;99.90
12578;DHT22;6354;51.026;8.968;2023-04-24T07:54:34;12.20;99.90
12578;DHT22;6354;51.026;8.968;2023-04-24T07:57:05;12.30;99.90
12578;DHT22;6354;51.026;8.968;2023-04-24T07:59:34;12.30;99.90
12578;DHT22;6354;51.026;8.968;2023-04-24T08:02:02;12.20;99.90
12578;DHT22;6354;51.026;8.968;2023-04-24T08:04:31;12.10;99.90
12578;DHT22;6354;51.026;8.968;2023-04-24T08:06:59;12.10;99.90
12578;DHT22;6354;51.026;8.968;2023-04-24T08:09:27;12.10;99.90
12578;DHT22;6354;51.026;8.968;2023-04-24T08:11:55;12.10;99.90
12578;DHT22;6354;51.026;8.968;2023-04-24T08:14:25;12.30;99.90
12578;DHT22;6354;51.026;8.968;2023-04-24T08:16:54;12.80;99.90
12578;DHT22;6354;51.026;8.968;2023-04-24T08:19:22;13.60;99.90
12578;DHT22;6354;51.026;8.968;2023-04-24T08:21:50;14.00;99.90
12578;DHT22;6354;51.026;8.968;2023-04-24T08:24:18;14.50;99.90
12578;DHT22;6354;51.026;8.968;2023-04-24T08:26:46;14.30;99.90
12578;DHT22;6354;51.026;8.968;2023-04-24T08:29:16;14.10;99.90
12578;DHT22;6354;51.026;8.968;2023-04-24T08:31:46;13.70;99.90
12578;DHT22;6354;51.026;8.968;2023-04-24T08:34:14;13.30;99.90
12578;DHT22;6354;51.026;8.968;2023-04-24T08:36:42;13.10;99.90
12578;DHT22;6354;51.026;8.968;2023-04-24T08:39:13;12.90;99.90
12578;DHT22;6354;51.026;8.968;2023-04-24T08:41:42;12.40;99.90
12578;DHT22;6354;51.026;8.968;2023-04-24T08:44:12;12.50;99.90
12578;DHT22;6354;51.026;8.968;2023-04-24T08:46:43;12.50;99.90
12578;DHT22;6354;51.026;8.968;2023-04-24T08:49:14;12.50;99.90
12578;DHT22;6354;51.026;8.968;2023-04-24T08:51:43;12.50;99.90
12578;DHT22;6354;51.026;8.968;2023-04-24T08:54:13;12.60;99.90
12578;DHT22;6354;51.026;8.968;2023-04-24T08:56:43;12.50;99.90
12578;DHT22;6354;51.026;8.968;2023-04-24T08:59:12;12.30;99.90
12578;DHT22;6354;51.026;8.968;2023-04-24T09:01:41;12.30;99.90
12578;DHT22;6354;51.026;8.968;2023-04-24T09:04:09;12.20;99.90
12578;DHT22;6354;51.026;8.968;2023-04-24T09:06:41;12.20;99.90
12578;DHT22;6354;51.026;8.968;2023-04-24T09:09:10;12.10;99.90
12578;DHT22;6354;51.026;8.968;2023-04-24T09:11:39;12.10;99.90
12578;DHT22;6354;51.026;8.968;2023-04-24T09:14:09;12.10;99.90
12578;DHT22;6354;51.026;8.968;2023-04-24T09:16:37;12.00;99.90
12578;DHT22;6354;51.026;8.968;2023-04-24T09:19:05;12.00;99.90
12578;DHT22;6354;51.026;8.968;2023-04-24T09:21:34;12.00;99.90
12578;DHT22;6354;51.026;8.968;2023-04-24T09:24:05;12.00;99.90
12578;DHT22;6354;51.026;8.968;2023-04-24T09:26:35;12.00;99.90
12578;DHT22;6354;51.026;8.968;2023-04-24T09:29:04;12.10;99.90
12578;DHT22;6354;51.026;8.968;2023-04-24T09:31:32;12.20;99.90
12578;DHT22;6354;51.026;8.968;2023-04-24T09:34:01;12.20;99.90
12578;DHT22;6354;51.026;8.968;2023-04-24T09:36:36;12.20;99.90
12578;DHT22;6354;51.026;8.968;2023-04-24T09:39:07;12.30;99.90
12578;DHT22;6354;51.026;8.968;2023-04-24T09:41:44;12.50;99.90
12578;DHT22;6354;51.026;8.968;2023-04-24T09:44:14;12.70;99.90
12578;DHT22;6354;51.026;8.968;2023-04-24T09:46:42;12.50;99.90
12578;DHT22;6354;51.026;8.968;2023-04-24T09:49:14;12.40;99.90
12578;DHT22;6354;51.026;8.968;2023-04-24T09:51:43;12.40;99.90
12578;DHT22;6354;51.026;8.968;2023-04-24T09:54:15;12.40;99.90
12578;DHT22;6354;51.026;8.968;2023-04-24T09:56:45;12.40;99.90
12578;DHT22;6354;51.026;8.968;2023-04-24T09:59:15;12.30;99.90
12578;DHT22;6354;51.026;8.968;2023-04-24T10:01:43;12.40;99.90
12578;DHT22;6354;51.026;8.968;2023-04-24T10:04:16;12.40;99.90
12578;DHT22;6354;51.026;8.968;2023-04-24T10:06:47;12.60;99.90
12578;DHT22;6354;51.026;8.968;2023-04-24T10:09:17;12.50;99.90
12578;DHT22;6354;51.026;8.968;2023-04-24T10:11:47;12.30;99.90
12578;DHT22;6354;51.026;8.968;2023-04-24T10:14:21;12.20;99.90
12578;DHT22;6354;51.026;8.968;2023-04-24T10:16:51;12.00;99.90
12578;DHT22;6354;51.026;8.968;2023-04-24T10:19:20;11.80;99.90
12578;DHT22;6354;51.026;8.968;2023-04-24T10:21:49;11.90;99.90
12578;DHT22;6354;51.026;8.968;2023-04-24T10:24:19;11.80;99.90
12578;DHT22;6354;51.026;8.968;2023-04-24T10:26:48;11.80;99.90
12578;DHT22;6354;51.026;8.968;2023-04-24T10:29:18;11.60;99.90
12578;DHT22;6354;51.026;8.968;2023-04-24T10:31:46;11.50;99.90
12578;DHT22;6354;51.026;8.968;2023-04-24T10:34:15;11.60;99.90
12578;DHT22;6354;51.026;8.968;2023-04-24T10:36:49;11.60;99.90
12578;DHT22;6354;51.026;8.968;2023-04-24T10:39:20;11.80;99.90
12578;DHT22;6354;51.026;8.968;2023-04-24T10:41:54;12.10;99.90
12578;DHT22;6354;51.026;8.968;2023-04-24T10:44:24;12.00;99.90
12578;DHT22;6354;51.026;8.968;2023-04-24T10:46:54;11.80;99.90
12578;DHT22;6354;51.026;8.968;2023-04-24T10:49:28;11.80;99.90
12578;DHT22;6354;51.026;8.968;2023-04-24T10:52:01;11.60;99.90
12578;DHT22;6354;51.026;8.968;2023-04-24T10:54:35;11.50;99.90
12578;DHT22;6354;51.026;8.968;2023-04-24T10:57:27;11.80;99.90
12578;DHT22;6354;51.026;8.968;2023-04-24T11:00:16;11.70;99.90
12578;DHT22;6354;51.026;8.968;2023-04-24T11:02:47;11.80;99.90
12578;DHT22;6354;51.026;8.968;2023-04-24T11:05:22;11.80;99.90
12578;DHT22;6354;51.026;8.968;2023-04-24T11:08:13;11.80;99.90
12578;DHT22;6354;51.026;8.968;2023-04-24T11:10:54;11.50;99.90
12578;DHT22;6354;51.026;8.968;2023-04-24T11:13:22;11.40;99.90
12578;DHT22;6354;51.026;8.968;2023-04-24T11:16:12;11.40;99.90
12578;DHT22;6354;51.026;8.968;2023-04-24T11:18:42;11.20;99.90
12578;DHT22;6354;51.026;8.968;2023-04-24T11:21:12;11.20;99.90
12578;DHT22;6354;51.026;8.968;2023-04-24T11:23:41;11.20;99.90
12578;DHT22;6354;51.026;8.968;2023-04-24T11:26:17;11.40;99.90
12578;DHT22;6354;51.026;8.968;2023-04-24T11:28:47;11.40;99.90
12578;DHT22;6354;51.026;8.968;2023-04-24T11:31:35;11.30;99.90
12578;DHT22;6354;51.026;8.968;2023-04-24T11:34:08;11.20;99.90
12578;DHT22;6354;51.026;8.968;2023-04-24T11:36:36;11.20;99.90
12578;DHT22;6354;51.026;8.968;2023-04-24T11:39:05;11.40;99.90
12578;DHT22;6354;51.026;8.968;2023-04-24T11:41:34;11.50;99.90
12578;DHT22;6354;51.026;8.968;2023-04-24T11:44:04;11.60;99.90
12578;DHT22;6354;51.026;8.968;2023-04-24T11:46:33;11.40;99.90
12578;DHT22;6354;51.026;8.968;2023-04-24T11:49:02;11.20;99.90
12578;DHT22;6354;51.026;8.968;2023-04-24T11:51:30;11.20;99.90
12578;DHT22;6354;51.026;8.968;2023-04-24T11:54:16;11.30;99.90
12578;DHT22;6354;51.026;8.968;2023-04-24T11:56:46;11.50;99.90
12578;DHT22;6354;51.026;8.968;2023-04-24T11:59:14;11.50;99.90
12578;DHT22;6354;51.026;8.968;2023-04-24T12:01:43;11.50;99.90
12578;DHT22;6354;51.026;8.968;2023-04-24T12:04:12;11.70;99.90
12578;DHT22;6354;51.026;8.968;2023-04-24T12:06:58;11.60;99.90
12578;DHT22;6354;51.026;8.968;2023-04-24T12:09:27;11.50;99.90
12578;DHT22;6354;51.026;8.968;2023-04-24T12:11:56;11.70;99.90
12578;DHT22;6354;51.026;8.968;2023-04-24T12:14:24;11.70;99.90
12578;DHT22;6354;51.026;8.968;2023-04-24T12:16:52;11.70;99.90
12578;DHT22;6354;51.026;8.968;2023-04-24T12:19:21;11.80;99.90
12578;DHT22;6354;51.026;8.968;2023-04-24T12:22:07;11.80;99.90
12578;DHT22;6354;51.026;8.968;2023-04-24T12:24:54;11.90;99.90
12578;DHT22;6354;51.026;8.968;2023-04-24T12:27:24;12.10;99.90
12578;DHT22;6354;51.026;8.968;2023-04-24T12:29:53;12.40;99.90
12578;DHT22;6354;51.026;8.968;2023-04-24T12:32:23;12.50;99.90
12578;DHT22;6354;51.026;8.968;2023-04-24T12:34:54;12.40;99.90
12578;DHT22;6354;51.026;8.968;2023-04-24T12:37:23;12.60;99.90
12578;DHT22;6354;51.026;8.968;2023-04-24T12:39:59;12.50;99.90
12578;DHT22;6354;51.026;8.968;2023-04-24T12:42:29;12.50;99.90
12578;DHT22;6354;51.026;8.968;2023-04-24T12:44:58;12.70;99.90
12578;DHT22;6354;51.026;8.968;2023-04-24T12:47:27;12.70;99.90
12578;DHT22;6354;51.026;8.968;2023-04-24T12:49:56;12.50;99.90
12578;DHT22;6354;51.026;8.968;2023-04-24T12:52:24;12.30;99.90
12578;DHT22;6354;51.026;8.968;2023-04-24T12:54:54;12.20;99.90
12578;DHT22;6354;51.026;8.968;2023-04-24T12:57:22;12.00;99.90
12578;DHT22;6354;51.026;8.968;2023-04-24T12:59:53;12.00;99.90
12578;DHT22;6354;51.026;8.968;2023-04-24T13:02:21;11.90;99.90
12578;DHT22;6354;51.026;8.968;2023-04-24T13:04:50;11.80;99.90
12578;DHT22;6354;51.026;8.968;2023-04-24T13:07:18;11.80;99.90
12578;DHT22;6354;51.026;8.968;2023-04-24T13:09:48;11.90;99.90
12578;DHT22;6354;51.026;8.968;2023-04-24T13:12:17;11.80;99.90
12578;DHT22;6354;51.026;8.968;2023-04-24T13:14:46;11.80;99.90
12578;DHT22;6354;51.026;8.968;2023-04-24T13:17:15;11.60;99.90
12578;DHT22;6354;51.026;8.968;2023-04-24T13:19:44;11.50;99.90
12578;DHT22;6354;51.026;8.968;2023-04-24T13:22:12;11.50;99.90
12578;DHT22;6354;51.026;8.968;2023-04-24T13:24:40;11.50;99.90
12578;DHT22;6354;51.026;8.968;2023-04-24T13:27:09;11.50;99.90
12578;DHT22;6354;51.026;8.968;2023-04-24T13:29:37;11.40;99.90
12578;DHT22;6354;51.026;8.968;2023-04-24T13:32:05;11.40;99.90
12578;DHT22;6354;51.026;8.968;2023-04-24T13:34:35;11.40;99.90
12578;DHT22;6354;51.026;8.968;2023-04-24T13:37:04;11.40;99.90
12578;DHT22;6354;51.026;8.968;2023-04-24T13:39:32;11.30;99.90
12578;DHT22;6354;51.026;8.968;2023-04-24T13:42:00;11.30;99.90
12578;DHT22;6354;51.026;8.968;2023-04-24T13:44:31;11.40;99.90
12578;DHT22;6354;51.026;8.968;2023-04-24T13:46:59;11.40;99.90
12578;DHT22;6354;51.026;8.968;2023-04-24T13:49:27;11.80;99.90
12578;DHT22;6354;51.026;8.968;2023-04-24T13:51:56;12.00;99.90
12578;DHT22;6354;51.026;8.968;2023-04-24T13:54:24;12.30;99.90
12578;DHT22;6354;51.026;8.968;2023-04-24T13:56:53;12.10;99.90
12578;DHT22;6354;51.026;8.968;2023-04-24T13:59:21;12.20;99.90
12578;DHT22;6354;51.026;8.968;2023-04-24T14:01:49;12.00;99.90
12578;DHT22;6354;51.026;8.968;2023-04-24T14:04:17;12.00;99.90
12578;DHT22;6354;51.026;8.968;2023-04-24T14:06:45;12.00;99.90
12578;DHT22;6354;51.026;8.968;2023-04-24T14:09:15;11.90;99.90
12578;DHT22;6354;51.026;8.968;2023-04-24T14:11:43;12.00;99.90
12578;DHT22;6354;51.026;8.968;2023-04-24T14:14:11;11.90;99.90
12578;DHT22;6354;51.026;8.968;2023-04-24T14:16:39;12.00;99.90
12578;DHT22;6354;51.026;8.968;2023-04-24T14:19:07;12.10;99.90
12578;DHT22;6354;51.026;8.968;2023-04-24T14:21:35;12.30;99.90
12578;DHT22;6354;51.026;8.968;2023-04-24T14:24:03;12.30;99.90
12578;DHT22;6354;51.026;8.968;2023-04-24T14:26:32;12.30;99.90
12578;DHT22;6354;51.026;8.968;2023-04-24T14:29:01;12.30;99.90
12578;DHT22;6354;51.026;8.968;2023-04-24T14:31:40;12.10;99.90
12578;DHT22;6354;51.026;8.968;2023-04-24T14:34:09;12.00;99.90
12578;DHT22;6354;51.026;8.968;2023-04-24T14:36:37;11.90;99.90
12578;DHT22;6354;51.026;8.968;2023-04-24T14:39:05;12.00;99.90
12578;DHT22;6354;51.026;8.968;2023-04-24T14:41:35;12.10;99.90
12578;DHT22;6354;51.026;8.968;2023-04-24T14:44:04;12.20;99.90
12578;DHT22;6354;51.026;8.968;2023-04-24T14:46:32;12.30;99.90
12578;DHT22;6354;51.026;8.968;2023-04-24T14:49:00;12.20;99.90
12578;DHT22;6354;51.026;8.968;2023-04-24T14:51:28;12.20;99.90
12578;DHT22;6354;51.026;8.968;2023-04-24T14:53:57;12.40;99.90
12578;DHT22;6354;51.026;8.968;2023-04-24T14:56:25;12.30;99.90
12578;DHT22;6354;51.026;8.968;2023-04-24T14:58:55;12.20;99.90
12578;DHT22;6354;51.026;8.968;2023-04-24T15:01:23;12.30;99.90
12578;DHT22;6354;51.026;8.968;2023-04-24T15:03:52;12.40;99.90
12578;DHT22;6354;51.026;8.968;2023-04-24T15:06:20;12.60;99.90
12578;DHT22;6354;51.026;8.968;2023-04-24T15:08:48;12.90;99.90
12578;DHT22;6354;51.026;8.968;2023-04-24T15:11:17;12.90;99.90
12578;DHT22;6354;51.026;8.968;2023-04-24T15:13:45;12.80;99.90
12578;DHT22;6354;51.026;8.968;2023-04-24T15:16:15;12.60;99.90
12578;DHT22;6354;51.026;8.968;2023-04-24T15:18:43;12.40;99.90
12578;DHT22;6354;51.026;8.968;2023-04-24T15:21:11;12.20;99.90
12578;DHT22;6354;51.026;8.968;2023-04-24T15:23:40;12.00;99.90
12578;DHT22;6354;51.026;8.968;2023-04-24T15:26:08;12.00;99.90
12578;DHT22;6354;51.026;8.968;2023-04-24T15:28:36;12.10;99.90
12578;DHT22;6354;51.026;8.968;2023-04-24T15:31:04;12.20;99.90
12578;DHT22;6354;51.026;8.968;2023-04-24T15:33:33;12.20;99.90
12578;DHT22;6354;51.026;8.968;2023-04-24T15:36:02;12.20;99.90
12578;DHT22;6354;51.026;8.968;2023-04-24T15:38:30;12.30;99.90
12578;DHT22;6354;51.026;8.968;2023-04-24T15:40:58;12.50;99.90
12578;DHT22;6354;51.026;8.968;2023-04-24T15:43:26;12.50;99.90
12578;DHT22;6354;51.026;8.968;2023-04-24T15:45:57;12.50;99.90
12578;DHT22;6354;51.026;8.968;2023-04-24T15:48:26;12.50;99.90
12578;DHT22;6354;51.026;8.968;2023-04-24T15:50:56;12.50;99.90
12578;DHT22;6354;51.026;8.968;2023-04-24T15:53:25;12.40;99.90
12578;DHT22;6354;51.026;8.968;2023-04-24T15:55:54;12.40;99.90
12578;DHT22;6354;51.026;8.968;2023-04-24T15:58:22;12.30;99.90
12578;DHT22;6354;51.026;8.968;2023-04-24T16:00:50;12.30;99.90